sensor_id;sensor_type;location;lat;lon;timestamp;P1;durP1;ratioP1;P2;durP2;ratioP2
80619;SDS011;69979;53.682;-2.690;2023-07-24T00:02:17;5;;;5;;
80619;SDS011;69979;53.682;-2.690;2023-07-24T00:04:43;8;;;7;;
80619;SDS011;69979;53.682;-2.690;2023-07-24T00:07:08;5;;;5;;
80619;SDS011;69979;53.682;-2.690;2023-07-24T00:09:34;5;;;5;;
80619;SDS011;69979;53.682;-2.690;2023-07-24T00:12:00;6;;;6;;
80619;SDS011;69979;53.682;-2.690;2023-07-24T00:14:25;5;;;5;;
80619;SDS011;69979;53.682;-2.690;2023-07-24T00:16:50;6;;;5;;
80619;SDS011;69979;53.682;-2.690;2023-07-24T00:19:16;8;;;7;;
80619;SDS011;69979;53.682;-2.690;2023-07-24T00:21:41;6;;;6;;
80619;SDS011;69979;53.682;-2.690;2023-07-24T00:24:07;6;;;6;;
80619;SDS011;69979;53.682;-2.690;2023-07-24T00:26:32;7;;;7;;
80619;SDS011;69979;53.682;-2.690;2023-07-24T00:28:59;5;;;5;;
80619;SDS011;69979;53.682;-2.690;2023-07-24T00:31:24;6;;;6;;
80619;SDS011;69979;53.682;-2.690;2023-07-24T00:33:49;5;;;5;;
80619;SDS011;69979;53.682;-2.690;2023-07-24T00:36:15;4;;;4;;
80619;SDS011;69979;53.682;-2.690;2023-07-24T00:38:40;5;;;5;;
80619;SDS011;69979;53.682;-2.690;2023-07-24T00:41:06;6;;;6;;
80619;SDS011;69979;53.682;-2.690;2023-07-24T00:43:31;5;;;5;;
80619;SDS011;69979;53.682;-2.690;2023-07-24T00:45:56;5;;;5;;
80619;SDS011;69979;53.682;-2.690;2023-07-24T00:48:22;4;;;4;;
80619;SDS011;69979;53.682;-2.690;2023-07-24T00:50:48;4;;;4;;
80619;SDS011;69979;53.682;-2.690;2023-07-24T00:53:13;4;;;4;;
80619;SDS011;69979;53.682;-2.690;2023-07-24T00:55:39;7;;;6;;
80619;SDS011;69979;53.682;-2.690;2023-07-24T00:58:04;5;;;4;;
80619;SDS011;69979;53.682;-2.690;2023-07-24T01:00:29;6;;;6;;
80619;SDS011;69979;53.682;-2.690;2023-07-24T01:02:55;6;;;6;;
80619;SDS011;69979;53.682;-2.690;2023-07-24T01:05:20;5;;;5;;
80619;SDS011;69979;53.682;-2.690;2023-07-24T01:07:46;5;;;4;;
80619;SDS011;69979;53.682;-2.690;2023-07-24T01:10:11;6;;;6;;
80619;SDS011;69979;53.682;-2.690;2023-07-24T01:12:39;7;;;6;;
80619;SDS011;69979;53.682;-2.690;2023-07-24T01:15:04;6;;;6;;
80619;SDS011;69979;53.682;-2.690;2023-07-24T01:17:27;7;;;6;;
80619;SDS011;69979;53.682;-2.690;2023-07-24T01:19:54;6;;;6;;
80619;SDS011;69979;53.682;-2.690;2023-07-24T01:22:20;7;;;7;;
80619;SDS011;69979;53.682;-2.690;2023-07-24T01:24:57;6;;;6;;
80619;SDS011;69979;53.682;-2.690;2023-07-24T01:27:09;7;;;6;;
80619;SDS011;69979;53.682;-2.690;2023-07-24T01:29:35;6;;;6;;
80619;SDS011;69979;53.682;-2.690;2023-07-24T01:32:00;5;;;5;;
80619;SDS011;69979;53.682;-2.690;2023-07-24T01:34:26;6;;;6;;
80619;SDS011;69979;53.682;-2.690;2023-07-24T01:36:51;5;;;5;;
80619;SDS011;69979;53.682;-2.690;2023-07-24T01:39:17;7;;;7;;
80619;SDS011;69979;53.682;-2.690;2023-07-24T01:41:42;7;;;6;;
80619;SDS011;69979;53.682;-2.690;2023-07-24T01:44:08;6;;;6;;
80619;SDS011;69979;53.682;-2.690;2023-07-24T01:46:33;7;;;7;;
80619;SDS011;69979;53.682;-2.690;2023-07-24T01:48:58;6;;;6;;
80619;SDS011;69979;53.682;-2.690;2023-07-24T01:51:24;7;;;7;;
80619;SDS011;69979;53.682;-2.690;2023-07-24T01:53:49;5;;;5;;
80619;SDS011;69979;53.682;-2.690;2023-07-24T01:56:15;7;;;7;;
80619;SDS011;69979;53.682;-2.690;2023-07-24T01:58:40;8;;;7;;
80619;SDS011;69979;53.682;-2.690;2023-07-24T02:01:06;5;;;5;;
80619;SDS011;69979;53.682;-2.690;2023-07-24T02:03:31;5;;;5;;
80619;SDS011;69979;53.682;-2.690;2023-07-24T02:05:57;4;;;4;;
80619;SDS011;69979;53.682;-2.690;2023-07-24T02:08:22;5;;;5;;
80619;SDS011;69979;53.682;-2.690;2023-07-24T02:10:48;3;;;3;;
80619;SDS011;69979;53.682;-2.690;2023-07-24T02:13:13;5;;;5;;
80619;SDS011;69979;53.682;-2.690;2023-07-24T02:15:39;5;;;5;;
80619;SDS011;69979;53.682;-2.690;2023-07-24T02:18:04;3;;;3;;
80619;SDS011;69979;53.682;-2.690;2023-07-24T02:20:30;5;;;5;;
80619;SDS011;69979;53.682;-2.690;2023-07-24T02:22:55;5;;;5;;
80619;SDS011;69979;53.682;-2.690;2023-07-24T02:25:21;5;;;4;;
80619;SDS011;69979;53.682;-2.690;2023-07-24T02:27:46;5;;;5;;
80619;SDS011;69979;53.682;-2.690;2023-07-24T02:30:12;4;;;4;;
80619;SDS011;69979;53.682;-2.690;2023-07-24T02:32:37;4;;;4;;
80619;SDS011;69979;53.682;-2.690;2023-07-24T02:35:03;5;;;5;;
80619;SDS011;69979;53.682;-2.690;2023-07-24T02:37:28;4;;;4;;
80619;SDS011;69979;53.682;-2.690;2023-07-24T02:39:53;5;;;5;;
80619;SDS011;69979;53.682;-2.690;2023-07-24T02:42:19;4;;;4;;
80619;SDS011;69979;53.682;-2.690;2023-07-24T02:44:44;5;;;5;;
80619;SDS011;69979;53.682;-2.690;2023-07-24T02:47:10;4;;;4;;
80619;SDS011;69979;53.682;-2.690;2023-07-24T02:49:35;5;;;4;;
80619;SDS011;69979;53.682;-2.690;2023-07-24T02:52:01;3;;;3;;
80619;SDS011;69979;53.682;-2.690;2023-07-24T02:54:26;3;;;3;;
80619;SDS011;69979;53.682;-2.690;2023-07-24T02:56:51;6;;;5;;
80619;SDS011;69979;53.682;-2.690;2023-07-24T02:59:17;4;;;4;;
80619;SDS011;69979;53.682;-2.690;2023-07-24T03:01:42;4;;;4;;
80619;SDS011;69979;53.682;-2.690;2023-07-24T03:04:08;4;;;4;;
80619;SDS011;69979;53.682;-2.690;2023-07-24T03:06:33;4;;;4;;
80619;SDS011;69979;53.682;-2.690;2023-07-24T03:08:59;4;;;4;;
80619;SDS011;69979;53.682;-2.690;2023-07-24T03:11:24;5;;;5;;
80619;SDS011;69979;53.682;-2.690;2023-07-24T03:13:50;5;;;5;;
80619;SDS011;69979;53.682;-2.690;2023-07-24T03:16:15;4;;;4;;
80619;SDS011;69979;53.682;-2.690;2023-07-24T03:18:41;4;;;4;;
80619;SDS011;69979;53.682;-2.690;2023-07-24T03:21:06;4;;;4;;
80619;SDS011;69979;53.682;-2.690;2023-07-24T03:23:32;5;;;5;;
80619;SDS011;69979;53.682;-2.690;2023-07-24T03:25:57;6;;;5;;
80619;SDS011;69979;53.682;-2.690;2023-07-24T03:28:22;5;;;4;;
80619;SDS011;69979;53.682;-2.690;2023-07-24T03:30:48;5;;;5;;
80619;SDS011;69979;53.682;-2.690;2023-07-24T03:33:13;4;;;4;;
80619;SDS011;69979;53.682;-2.690;2023-07-24T03:35:39;4;;;4;;
80619;SDS011;69979;53.682;-2.690;2023-07-24T03:38:05;4;;;4;;
80619;SDS011;69979;53.682;-2.690;2023-07-24T03:40:30;5;;;4;;
80619;SDS011;69979;53.682;-2.690;2023-07-24T03:42:55;3;;;3;;
80619;SDS011;69979;53.682;-2.690;2023-07-24T03:45:21;5;;;5;;
80619;SDS011;69979;53.682;-2.690;2023-07-24T03:47:46;4;;;4;;
80619;SDS011;69979;53.682;-2.690;2023-07-24T03:50:12;4;;;4;;
80619;SDS011;69979;53.682;-2.690;2023-07-24T03:52:37;4;;;4;;
80619;SDS011;69979;53.682;-2.690;2023-07-24T03:55:03;4;;;4;;
80619;SDS011;69979;53.682;-2.690;2023-07-24T03:57:28;4;;;4;;
80619;SDS011;69979;53.682;-2.690;2023-07-24T03:59:54;3;;;3;;
80619;SDS011;69979;53.682;-2.690;2023-07-24T04:02:19;4;;;4;;
80619;SDS011;69979;53.682;-2.690;2023-07-24T04:04:45;3;;;3;;
80619;SDS011;69979;53.682;-2.690;2023-07-24T04:07:10;4;;;4;;
80619;SDS011;69979;53.682;-2.690;2023-07-24T04:09:36;3;;;3;;
80619;SDS011;69979;53.682;-2.690;2023-07-24T04:12:01;5;;;5;;
80619;SDS011;69979;53.682;-2.690;2023-07-24T04:14:27;3;;;3;;
80619;SDS011;69979;53.682;-2.690;2023-07-24T04:16:52;4;;;4;;
80619;SDS011;69979;53.682;-2.690;2023-07-24T04:19:17;3;;;3;;
80619;SDS011;69979;53.682;-2.690;2023-07-24T04:21:43;6;;;4;;
80619;SDS011;69979;53.682;-2.690;2023-07-24T04:24:09;5;;;5;;
80619;SDS011;69979;53.682;-2.690;2023-07-24T04:26:34;3;;;3;;
80619;SDS011;69979;53.682;-2.690;2023-07-24T04:29:00;3;;;3;;
80619;SDS011;69979;53.682;-2.690;2023-07-24T04:31:25;5;;;4;;
80619;SDS011;69979;53.682;-2.690;2023-07-24T04:33:51;4;;;4;;
80619;SDS011;69979;53.682;-2.690;2023-07-24T04:36:16;3;;;3;;
80619;SDS011;69979;53.682;-2.690;2023-07-24T04:38:42;3;;;3;;
80619;SDS011;69979;53.682;-2.690;2023-07-24T04:41:07;3;;;3;;
80619;SDS011;69979;53.682;-2.690;2023-07-24T04:43:33;3;;;3;;
80619;SDS011;69979;53.682;-2.690;2023-07-24T04:45:58;2;;;2;;
80619;SDS011;69979;53.682;-2.690;2023-07-24T04:48:24;2;;;2;;
80619;SDS011;69979;53.682;-2.690;2023-07-24T04:50:53;4;;;4;;
80619;SDS011;69979;53.682;-2.690;2023-07-24T04:53:15;2;;;2;;
80619;SDS011;69979;53.682;-2.690;2023-07-24T04:55:40;4;;;4;;
80619;SDS011;69979;53.682;-2.690;2023-07-24T04:58:06;4;;;4;;
80619;SDS011;69979;53.682;-2.690;2023-07-24T05:00:31;4;;;4;;
80619;SDS011;69979;53.682;-2.690;2023-07-24T05:02:57;4;;;3;;
80619;SDS011;69979;53.682;-2.690;2023-07-24T05:05:22;4;;;3;;
80619;SDS011;69979;53.682;-2.690;2023-07-24T05:07:48;3;;;3;;
80619;SDS011;69979;53.682;-2.690;2023-07-24T05:10:13;3;;;3;;
80619;SDS011;69979;53.682;-2.690;2023-07-24T05:12:40;3;;;3;;
80619;SDS011;69979;53.682;-2.690;2023-07-24T05:15:04;3;;;3;;
80619;SDS011;69979;53.682;-2.690;2023-07-24T05:17:29;3;;;3;;
80619;SDS011;69979;53.682;-2.690;2023-07-24T05:19:55;2;;;2;;
80619;SDS011;69979;53.682;-2.690;2023-07-24T05:22:20;3;;;3;;
80619;SDS011;69979;53.682;-2.690;2023-07-24T05:24:46;3;;;3;;
80619;SDS011;69979;53.682;-2.690;2023-07-24T05:27:12;3;;;3;;
80619;SDS011;69979;53.682;-2.690;2023-07-24T05:29:37;3;;;3;;
80619;SDS011;69979;53.682;-2.690;2023-07-24T05:32:03;2;;;2;;
80619;SDS011;69979;53.682;-2.690;2023-07-24T05:34:28;3;;;2;;
80619;SDS011;69979;53.682;-2.690;2023-07-24T05:36:53;3;;;3;;
80619;SDS011;69979;53.682;-2.690;2023-07-24T05:39:19;3;;;3;;
80619;SDS011;69979;53.682;-2.690;2023-07-24T05:41:44;5;;;4;;
80619;SDS011;69979;53.682;-2.690;2023-07-24T05:44:10;4;;;4;;
80619;SDS011;69979;53.682;-2.690;2023-07-24T05:46:35;4;;;4;;
80619;SDS011;69979;53.682;-2.690;2023-07-24T05:49:01;2;;;2;;
80619;SDS011;69979;53.682;-2.690;2023-07-24T05:51:26;4;;;4;;
80619;SDS011;69979;53.682;-2.690;2023-07-24T05:53:52;2;;;2;;
80619;SDS011;69979;53.682;-2.690;2023-07-24T05:56:17;2;;;2;;
80619;SDS011;69979;53.682;-2.690;2023-07-24T05:58:43;2;;;2;;
80619;SDS011;69979;53.682;-2.690;2023-07-24T06:01:08;3;;;3;;
80619;SDS011;69979;53.682;-2.690;2023-07-24T06:03:34;2;;;2;;
80619;SDS011;69979;53.682;-2.690;2023-07-24T06:05:59;4;;;4;;
80619;SDS011;69979;53.682;-2.690;2023-07-24T06:08:24;3;;;3;;
80619;SDS011;69979;53.682;-2.690;2023-07-24T06:10:50;3;;;3;;
80619;SDS011;69979;53.682;-2.690;2023-07-24T06:13:15;4;;;4;;
80619;SDS011;69979;53.682;-2.690;2023-07-24T06:15:41;4;;;4;;
80619;SDS011;69979;53.682;-2.690;2023-07-24T06:18:07;2;;;2;;
80619;SDS011;69979;53.682;-2.690;2023-07-24T06:20:32;3;;;3;;
80619;SDS011;69979;53.682;-2.690;2023-07-24T06:22:57;3;;;3;;
80619;SDS011;69979;53.682;-2.690;2023-07-24T06:25:23;3;;;3;;
80619;SDS011;69979;53.682;-2.690;2023-07-24T06:27:48;4;;;3;;
80619;SDS011;69979;53.682;-2.690;2023-07-24T06:30:14;3;;;3;;
80619;SDS011;69979;53.682;-2.690;2023-07-24T06:32:39;4;;;4;;
80619;SDS011;69979;53.682;-2.690;2023-07-24T06:35:05;3;;;3;;
80619;SDS011;69979;53.682;-2.690;2023-07-24T06:37:30;3;;;2;;
80619;SDS011;69979;53.682;-2.690;2023-07-24T06:39:55;4;;;3;;
80619;SDS011;69979;53.682;-2.690;2023-07-24T06:42:21;3;;;3;;
80619;SDS011;69979;53.682;-2.690;2023-07-24T06:44:46;2;;;2;;
80619;SDS011;69979;53.682;-2.690;2023-07-24T06:47:12;2;;;2;;
80619;SDS011;69979;53.682;-2.690;2023-07-24T06:49:37;2;;;2;;
80619;SDS011;69979;53.682;-2.690;2023-07-24T06:52:03;3;;;3;;
80619;SDS011;69979;53.682;-2.690;2023-07-24T06:54:28;5;;;4;;
80619;SDS011;69979;53.682;-2.690;2023-07-24T06:56:53;5;;;4;;
80619;SDS011;69979;53.682;-2.690;2023-07-24T06:59:19;3;;;3;;
80619;SDS011;69979;53.682;-2.690;2023-07-24T07:01:44;5;;;5;;
80619;SDS011;69979;53.682;-2.690;2023-07-24T07:04:10;3;;;3;;
80619;SDS011;69979;53.682;-2.690;2023-07-24T07:06:35;5;;;5;;
80619;SDS011;69979;53.682;-2.690;2023-07-24T07:09:01;6;;;5;;
80619;SDS011;69979;53.682;-2.690;2023-07-24T07:11:26;3;;;3;;
80619;SDS011;69979;53.682;-2.690;2023-07-24T07:13:51;4;;;4;;
80619;SDS011;69979;53.682;-2.690;2023-07-24T07:16:17;4;;;4;;
80619;SDS011;69979;53.682;-2.690;2023-07-24T07:18:42;3;;;3;;
80619;SDS011;69979;53.682;-2.690;2023-07-24T07:21:08;3;;;3;;
80619;SDS011;69979;53.682;-2.690;2023-07-24T07:23:33;3;;;3;;
80619;SDS011;69979;53.682;-2.690;2023-07-24T07:25:59;3;;;2;;
80619;SDS011;69979;53.682;-2.690;2023-07-24T07:28:24;2;;;2;;
80619;SDS011;69979;53.682;-2.690;2023-07-24T07:30:50;2;;;2;;
80619;SDS011;69979;53.682;-2.690;2023-07-24T07:33:15;3;;;3;;
80619;SDS011;69979;53.682;-2.690;2023-07-24T07:35:41;4;;;4;;
80619;SDS011;69979;53.682;-2.690;2023-07-24T07:38:06;4;;;3;;
80619;SDS011;69979;53.682;-2.690;2023-07-24T07:40:32;2;;;1;;
80619;SDS011;69979;53.682;-2.690;2023-07-24T07:42:58;2;;;2;;
80619;SDS011;69979;53.682;-2.690;2023-07-24T07:45:23;2;;;2;;
80619;SDS011;69979;53.682;-2.690;2023-07-24T07:47:48;1;;;1;;
80619;SDS011;69979;53.682;-2.690;2023-07-24T07:50:14;4;;;3;;
80619;SDS011;69979;53.682;-2.690;2023-07-24T07:52:39;3;;;2;;
80619;SDS011;69979;53.682;-2.690;2023-07-24T07:55:05;2;;;2;;
80619;SDS011;69979;53.682;-2.690;2023-07-24T07:57:30;3;;;2;;
80619;SDS011;69979;53.682;-2.690;2023-07-24T07:59:56;3;;;3;;
80619;SDS011;69979;53.682;-2.690;2023-07-24T08:02:21;2;;;2;;
80619;SDS011;69979;53.682;-2.690;2023-07-24T08:04:47;2;;;2;;
80619;SDS011;69979;53.682;-2.690;2023-07-24T08:07:12;2;;;2;;
80619;SDS011;69979;53.682;-2.690;2023-07-24T08:09:38;5;;;3;;
80619;SDS011;69979;53.682;-2.690;2023-07-24T08:12:03;2;;;2;;
80619;SDS011;69979;53.682;-2.690;2023-07-24T08:14:29;1;;;1;;
80619;SDS011;69979;53.682;-2.690;2023-07-24T08:16:54;1;;;1;;
80619;SDS011;69979;53.682;-2.690;2023-07-24T08:19:19;1;;;1;;
80619;SDS011;69979;53.682;-2.690;2023-07-24T08:21:46;3;;;3;;
80619;SDS011;69979;53.682;-2.690;2023-07-24T08:24:10;3;;;3;;
80619;SDS011;69979;53.682;-2.690;2023-07-24T08:26:36;2;;;2;;
80619;SDS011;69979;53.682;-2.690;2023-07-24T08:29:01;4;;;4;;
80619;SDS011;69979;53.682;-2.690;2023-07-24T08:31:27;2;;;2;;
80619;SDS011;69979;53.682;-2.690;2023-07-24T08:33:52;1;;;1;;
80619;SDS011;69979;53.682;-2.690;2023-07-24T08:36:18;3;;;3;;
80619;SDS011;69979;53.682;-2.690;2023-07-24T08:38:43;2;;;2;;
80619;SDS011;69979;53.682;-2.690;2023-07-24T08:41:09;2;;;2;;
80619;SDS011;69979;53.682;-2.690;2023-07-24T08:43:35;3;;;3;;
80619;SDS011;69979;53.682;-2.690;2023-07-24T08:46:00;3;;;3;;
80619;SDS011;69979;53.682;-2.690;2023-07-24T08:48:25;4;;;4;;
80619;SDS011;69979;53.682;-2.690;2023-07-24T08:50:50;3;;;3;;
80619;SDS011;69979;53.682;-2.690;2023-07-24T08:53:16;4;;;4;;
80619;SDS011;69979;53.682;-2.690;2023-07-24T08:55:41;1;;;1;;
80619;SDS011;69979;53.682;-2.690;2023-07-24T08:58:07;1;;;1;;
80619;SDS011;69979;53.682;-2.690;2023-07-24T09:00:32;3;;;3;;
80619;SDS011;69979;53.682;-2.690;2023-07-24T09:02:57;3;;;3;;
80619;SDS011;69979;53.682;-2.690;2023-07-24T09:05:23;3;;;2;;
80619;SDS011;69979;53.682;-2.690;2023-07-24T09:07:48;3;;;3;;
80619;SDS011;69979;53.682;-2.690;2023-07-24T09:10:14;2;;;2;;
80619;SDS011;69979;53.682;-2.690;2023-07-24T09:12:39;3;;;3;;
80619;SDS011;69979;53.682;-2.690;2023-07-24T09:15:05;4;;;4;;
80619;SDS011;69979;53.682;-2.690;2023-07-24T09:17:30;3;;;3;;
80619;SDS011;69979;53.682;-2.690;2023-07-24T09:19:55;3;;;3;;
80619;SDS011;69979;53.682;-2.690;2023-07-24T09:22:21;1;;;1;;
80619;SDS011;69979;53.682;-2.690;2023-07-24T09:24:50;2;;;2;;
80619;SDS011;69979;53.682;-2.690;2023-07-24T09:27:11;1;;;1;;
80619;SDS011;69979;53.682;-2.690;2023-07-24T09:29:37;2;;;2;;
80619;SDS011;69979;53.682;-2.690;2023-07-24T09:32:02;3;;;3;;
80619;SDS011;69979;53.682;-2.690;2023-07-24T09:34:28;3;;;3;;
80619;SDS011;69979;53.682;-2.690;2023-07-24T09:36:53;3;;;3;;
80619;SDS011;69979;53.682;-2.690;2023-07-24T09:39:22;3;;;3;;
80619;SDS011;69979;53.682;-2.690;2023-07-24T09:41:44;3;;;3;;
80619;SDS011;69979;53.682;-2.690;2023-07-24T09:44:11;3;;;3;;
80619;SDS011;69979;53.682;-2.690;2023-07-24T09:46:35;5;;;5;;
80619;SDS011;69979;53.682;-2.690;2023-07-24T09:49:00;3;;;3;;
80619;SDS011;69979;53.682;-2.690;2023-07-24T09:51:26;2;;;2;;
80619;SDS011;69979;53.682;-2.690;2023-07-24T09:53:52;3;;;3;;
80619;SDS011;69979;53.682;-2.690;2023-07-24T09:56:17;4;;;4;;
80619;SDS011;69979;53.682;-2.690;2023-07-24T09:58:42;2;;;2;;
80619;SDS011;69979;53.682;-2.690;2023-07-24T10:01:08;1;;;1;;
80619;SDS011;69979;53.682;-2.690;2023-07-24T10:03:33;2;;;2;;
80619;SDS011;69979;53.682;-2.690;2023-07-24T10:05:58;2;;;2;;
80619;SDS011;69979;53.682;-2.690;2023-07-24T10:08:24;3;;;3;;
80619;SDS011;69979;53.682;-2.690;2023-07-24T10:10:49;3;;;3;;
80619;SDS011;69979;53.682;-2.690;2023-07-24T10:13:14;3;;;2;;
80619;SDS011;69979;53.682;-2.690;2023-07-24T10:15:40;3;;;3;;
80619;SDS011;69979;53.682;-2.690;2023-07-24T10:18:06;5;;;5;;
80619;SDS011;69979;53.682;-2.690;2023-07-24T10:20:34;3;;;3;;
80619;SDS011;69979;53.682;-2.690;2023-07-24T10:22:56;4;;;4;;
80619;SDS011;69979;53.682;-2.690;2023-07-24T10:27:47;2;;;2;;
80619;SDS011;69979;53.682;-2.690;2023-07-24T10:30:12;2;;;2;;
80619;SDS011;69979;53.682;-2.690;2023-07-24T10:35:06;3;;;3;;
80619;SDS011;69979;53.682;-2.690;2023-07-24T10:37:34;4;;;4;;
80619;SDS011;69979;53.682;-2.690;2023-07-24T10:39:54;3;;;3;;
80619;SDS011;69979;53.682;-2.690;2023-07-24T10:42:22;3;;;2;;
80619;SDS011;69979;53.682;-2.690;2023-07-24T10:44:45;3;;;3;;
80619;SDS011;69979;53.682;-2.690;2023-07-24T10:47:10;5;;;4;;
80619;SDS011;69979;53.682;-2.690;2023-07-24T10:49:36;2;;;2;;
80619;SDS011;69979;53.682;-2.690;2023-07-24T10:52:01;3;;;3;;
80619;SDS011;69979;53.682;-2.690;2023-07-24T10:54:27;3;;;3;;
80619;SDS011;69979;53.682;-2.690;2023-07-24T10:59:17;3;;;3;;
80619;SDS011;69979;53.682;-2.690;2023-07-24T11:01:44;3;;;3;;
80619;SDS011;69979;53.682;-2.690;2023-07-24T11:04:08;3;;;3;;
80619;SDS011;69979;53.682;-2.690;2023-07-24T11:06:34;3;;;3;;
80619;SDS011;69979;53.682;-2.690;2023-07-24T11:08:59;2;;;2;;
80619;SDS011;69979;53.682;-2.690;2023-07-24T11:11:27;3;;;3;;
80619;SDS011;69979;53.682;-2.690;2023-07-24T11:13:50;2;;;2;;
80619;SDS011;69979;53.682;-2.690;2023-07-24T11:16:15;3;;;3;;
80619;SDS011;69979;53.682;-2.690;2023-07-24T11:18:44;4;;;3;;
80619;SDS011;69979;53.682;-2.690;2023-07-24T11:21:06;2;;;2;;
80619;SDS011;69979;53.682;-2.690;2023-07-24T11:23:31;4;;;4;;
80619;SDS011;69979;53.682;-2.690;2023-07-24T11:25:57;4;;;4;;
80619;SDS011;69979;53.682;-2.690;2023-07-24T11:28:22;2;;;2;;
80619;SDS011;69979;53.682;-2.690;2023-07-24T11:30:48;3;;;3;;
80619;SDS011;69979;53.682;-2.690;2023-07-24T11:33:14;4;;;4;;
80619;SDS011;69979;53.682;-2.690;2023-07-24T11:35:39;4;;;4;;
80619;SDS011;69979;53.682;-2.690;2023-07-24T11:38:04;3;;;3;;
80619;SDS011;69979;53.682;-2.690;2023-07-24T11:40:31;3;;;3;;
80619;SDS011;69979;53.682;-2.690;2023-07-24T11:42:55;3;;;3;;
80619;SDS011;69979;53.682;-2.690;2023-07-24T11:45:20;3;;;3;;
80619;SDS011;69979;53.682;-2.690;2023-07-24T11:47:46;6;;;6;;
80619;SDS011;69979;53.682;-2.690;2023-07-24T11:50:11;4;;;4;;
80619;SDS011;69979;53.682;-2.690;2023-07-24T11:52:38;2;;;2;;
80619;SDS011;69979;53.682;-2.690;2023-07-24T11:55:02;4;;;4;;
80619;SDS011;69979;53.682;-2.690;2023-07-24T11:57:27;3;;;3;;
80619;SDS011;69979;53.682;-2.690;2023-07-24T11:59:53;4;;;4;;
80619;SDS011;69979;53.682;-2.690;2023-07-24T12:02:18;4;;;4;;
80619;SDS011;69979;53.682;-2.690;2023-07-24T12:04:43;3;;;3;;
80619;SDS011;69979;53.682;-2.690;2023-07-24T12:07:09;3;;;3;;
80619;SDS011;69979;53.682;-2.690;2023-07-24T12:09:34;3;;;3;;
80619;SDS011;69979;53.682;-2.690;2023-07-24T12:12:00;2;;;2;;
80619;SDS011;69979;53.682;-2.690;2023-07-24T12:14:25;4;;;4;;
80619;SDS011;69979;53.682;-2.690;2023-07-24T12:19:16;3;;;3;;
80619;SDS011;69979;53.682;-2.690;2023-07-24T12:21:41;3;;;3;;
80619;SDS011;69979;53.682;-2.690;2023-07-24T12:24:07;5;;;5;;
80619;SDS011;69979;53.682;-2.690;2023-07-24T12:26:32;4;;;4;;
80619;SDS011;69979;53.682;-2.690;2023-07-24T12:28:58;2;;;2;;
80619;SDS011;69979;53.682;-2.690;2023-07-24T12:31:23;4;;;3;;
80619;SDS011;69979;53.682;-2.690;2023-07-24T12:33:48;3;;;3;;
80619;SDS011;69979;53.682;-2.690;2023-07-24T12:36:14;3;;;3;;
80619;SDS011;69979;53.682;-2.690;2023-07-24T12:38:39;2;;;2;;
80619;SDS011;69979;53.682;-2.690;2023-07-24T12:41:05;3;;;3;;
80619;SDS011;69979;53.682;-2.690;2023-07-24T12:43:30;3;;;3;;
80619;SDS011;69979;53.682;-2.690;2023-07-24T12:45:55;4;;;3;;
80619;SDS011;69979;53.682;-2.690;2023-07-24T12:48:21;3;;;3;;
80619;SDS011;69979;53.682;-2.690;2023-07-24T12:50:46;3;;;3;;
80619;SDS011;69979;53.682;-2.690;2023-07-24T12:53:12;3;;;3;;
80619;SDS011;69979;53.682;-2.690;2023-07-24T12:55:37;3;;;2;;
80619;SDS011;69979;53.682;-2.690;2023-07-24T12:58:03;3;;;2;;
80619;SDS011;69979;53.682;-2.690;2023-07-24T13:00:28;2;;;2;;
80619;SDS011;69979;53.682;-2.690;2023-07-24T13:02:53;3;;;3;;
80619;SDS011;69979;53.682;-2.690;2023-07-24T13:05:19;3;;;3;;
80619;SDS011;69979;53.682;-2.690;2023-07-24T13:07:44;4;;;4;;
80619;SDS011;69979;53.682;-2.690;2023-07-24T13:10:10;4;;;4;;
80619;SDS011;69979;53.682;-2.690;2023-07-24T13:12:35;2;;;2;;
80619;SDS011;69979;53.682;-2.690;2023-07-24T13:15:00;2;;;2;;
80619;SDS011;69979;53.682;-2.690;2023-07-24T13:17:26;4;;;3;;
80619;SDS011;69979;53.682;-2.690;2023-07-24T13:19:51;3;;;3;;
80619;SDS011;69979;53.682;-2.690;2023-07-24T13:22:17;2;;;2;;
80619;SDS011;69979;53.682;-2.690;2023-07-24T13:24:42;4;;;3;;
80619;SDS011;69979;53.682;-2.690;2023-07-24T13:27:08;3;;;3;;
80619;SDS011;69979;53.682;-2.690;2023-07-24T13:29:33;3;;;3;;
80619;SDS011;69979;53.682;-2.690;2023-07-24T13:31:58;2;;;2;;
80619;SDS011;69979;53.682;-2.690;2023-07-24T13:34:24;3;;;3;;
80619;SDS011;69979;53.682;-2.690;2023-07-24T13:36:49;4;;;4;;
80619;SDS011;69979;53.682;-2.690;2023-07-24T13:39:14;2;;;2;;
80619;SDS011;69979;53.682;-2.690;2023-07-24T13:41:40;3;;;3;;
80619;SDS011;69979;53.682;-2.690;2023-07-24T13:44:05;3;;;3;;
80619;SDS011;69979;53.682;-2.690;2023-07-24T13:46:31;2;;;2;;
80619;SDS011;69979;53.682;-2.690;2023-07-24T13:48:56;2;;;2;;
80619;SDS011;69979;53.682;-2.690;2023-07-24T13:51:21;3;;;3;;
80619;SDS011;69979;53.682;-2.690;2023-07-24T13:53:47;2;;;2;;
80619;SDS011;69979;53.682;-2.690;2023-07-24T13:56:12;3;;;3;;
80619;SDS011;69979;53.682;-2.690;2023-07-24T13:58:37;3;;;3;;
80619;SDS011;69979;53.682;-2.690;2023-07-24T14:01:03;3;;;3;;
80619;SDS011;69979;53.682;-2.690;2023-07-24T14:03:28;4;;;4;;
80619;SDS011;69979;53.682;-2.690;2023-07-24T14:05:53;3;;;3;;
80619;SDS011;69979;53.682;-2.690;2023-07-24T14:08:19;3;;;3;;
80619;SDS011;69979;53.682;-2.690;2023-07-24T14:10:44;3;;;3;;
80619;SDS011;69979;53.682;-2.690;2023-07-24T14:13:10;3;;;3;;
80619;SDS011;69979;53.682;-2.690;2023-07-24T14:15:35;3;;;2;;
80619;SDS011;69979;53.682;-2.690;2023-07-24T14:18:00;2;;;2;;
80619;SDS011;69979;53.682;-2.690;2023-07-24T14:20:26;3;;;3;;
80619;SDS011;69979;53.682;-2.690;2023-07-24T14:22:51;3;;;3;;
80619;SDS011;69979;53.682;-2.690;2023-07-24T14:25:17;2;;;2;;
80619;SDS011;69979;53.682;-2.690;2023-07-24T14:27:42;1;;;1;;
80619;SDS011;69979;53.682;-2.690;2023-07-24T14:30:08;3;;;3;;
80619;SDS011;69979;53.682;-2.690;2023-07-24T14:32:33;3;;;3;;
80619;SDS011;69979;53.682;-2.690;2023-07-24T14:34:58;2;;;2;;
80619;SDS011;69979;53.682;-2.690;2023-07-24T14:37:24;3;;;3;;
80619;SDS011;69979;53.682;-2.690;2023-07-24T14:39:49;3;;;2;;
80619;SDS011;69979;53.682;-2.690;2023-07-24T14:42:14;2;;;2;;
80619;SDS011;69979;53.682;-2.690;2023-07-24T14:44:41;1;;;1;;
80619;SDS011;69979;53.682;-2.690;2023-07-24T14:47:05;3;;;2;;
80619;SDS011;69979;53.682;-2.690;2023-07-24T14:49:31;3;;;3;;
80619;SDS011;69979;53.682;-2.690;2023-07-24T14:51:56;2;;;2;;
80619;SDS011;69979;53.682;-2.690;2023-07-24T14:54:22;2;;;2;;
80619;SDS011;69979;53.682;-2.690;2023-07-24T14:56:47;2;;;2;;
80619;SDS011;69979;53.682;-2.690;2023-07-24T14:59:12;2;;;2;;
80619;SDS011;69979;53.682;-2.690;2023-07-24T15:01:38;2;;;2;;
80619;SDS011;69979;53.682;-2.690;2023-07-24T15:04:03;2;;;2;;
80619;SDS011;69979;53.682;-2.690;2023-07-24T15:06:28;2;;;2;;
80619;SDS011;69979;53.682;-2.690;2023-07-24T15:08:54;2;;;2;;
80619;SDS011;69979;53.682;-2.690;2023-07-24T15:11:19;2;;;2;;
80619;SDS011;69979;53.682;-2.690;2023-07-24T15:13:45;3;;;3;;
80619;SDS011;69979;53.682;-2.690;2023-07-24T15:16:10;1;;;1;;
80619;SDS011;69979;53.682;-2.690;2023-07-24T15:18:35;4;;;4;;
80619;SDS011;69979;53.682;-2.690;2023-07-24T15:21:01;3;;;3;;
80619;SDS011;69979;53.682;-2.690;2023-07-24T15:23:26;3;;;3;;
80619;SDS011;69979;53.682;-2.690;2023-07-24T15:25:52;2;;;1;;
80619;SDS011;69979;53.682;-2.690;2023-07-24T15:28:17;3;;;3;;
80619;SDS011;69979;53.682;-2.690;2023-07-24T15:30:43;2;;;2;;
80619;SDS011;69979;53.682;-2.690;2023-07-24T15:33:08;2;;;2;;
80619;SDS011;69979;53.682;-2.690;2023-07-24T15:35:33;2;;;2;;
80619;SDS011;69979;53.682;-2.690;2023-07-24T15:37:59;2;;;2;;
80619;SDS011;69979;53.682;-2.690;2023-07-24T15:40:24;2;;;2;;
80619;SDS011;69979;53.682;-2.690;2023-07-24T15:42:49;2;;;2;;
80619;SDS011;69979;53.682;-2.690;2023-07-24T15:45:15;2;;;2;;
80619;SDS011;69979;53.682;-2.690;2023-07-24T15:47:40;3;;;3;;
80619;SDS011;69979;53.682;-2.690;2023-07-24T15:50:06;3;;;3;;
80619;SDS011;69979;53.682;-2.690;2023-07-24T15:52:31;2;;;2;;
80619;SDS011;69979;53.682;-2.690;2023-07-24T15:54:56;2;;;2;;
80619;SDS011;69979;53.682;-2.690;2023-07-24T15:57:22;2;;;2;;
80619;SDS011;69979;53.682;-2.690;2023-07-24T15:59:47;3;;;3;;